Compton, United Kingdom
Current Conditions -  °F | °C
As of 4:20 PM on Friday 24 Oct 2014 (Local Time) from EGHI Reporting Station
Broken Clouds Broken Clouds  
Wind Chill: 61°   Ceiling: 2200
Heat Index: 61°   Visibility: 6mi
Dew Point: 55°   Wind: 6mph
Humidity: 82%   Direction: 250°WSW
Pressure: 29.91"   Gusts: NA
Location:  51.02°N, 1.34°W
Report Text: EGHI 241520Z 25005KT 9999 SCT016 BKN022 16/13 Q1013
Loading
Personal Weather Stations






























Interactive Weather Map
Tropical Storm Tracking
New forecast layout! Learn more

10-Day Weather Forecast

Advertisements
Track Severe Weather on mobile